createdAt,value
2017-05-28T00:00:08.102Z,22.61
2017-05-28T00:01:17.752Z,22.6
2017-05-28T00:02:27.397Z,22.52
2017-05-28T00:03:37.358Z,22.57
2017-05-28T00:04:46.683Z,22.58
2017-05-28T00:05:56.652Z,22.51
2017-05-28T00:07:06.602Z,22.52
2017-05-28T00:08:16.871Z,22.64
2017-05-28T00:09:26.826Z,22.57
2017-05-28T00:10:36.789Z,22.64
2017-05-28T00:11:46.114Z,22.58
2017-05-28T00:12:56.388Z,22.6
2017-05-28T00:14:06.347Z,22.6
2017-05-28T00:15:16.296Z,22.55
2017-05-28T00:16:26.566Z,22.62
2017-05-28T00:17:36.523Z,22.55
2017-05-28T00:18:46.225Z,22.58
2017-05-28T00:19:56.173Z,22.49
2017-05-28T00:21:06.130Z,22.55
2017-05-28T00:22:16.400Z,22.52
2017-05-28T00:23:26.036Z,22.54
2017-05-28T00:24:36.312Z,22.55
2017-05-28T00:25:46.585Z,22.51
2017-05-28T00:26:56.846Z,22.62
2017-05-28T00:28:07.116Z,22.52
2017-05-28T00:29:17.069Z,22.47
2017-05-28T00:30:27.332Z,22.47
2017-05-28T00:31:37.634Z,22.47
2017-05-28T00:32:47.590Z,22.52
2017-05-28T00:33:57.859Z,22.54
2017-05-28T00:35:07.818Z,22.51
2017-05-28T00:36:17.770Z,22.55
2017-05-28T00:37:27.407Z,22.54
2017-05-28T00:38:37.045Z,22.51
2017-05-28T00:39:47.314Z,22.52
2017-05-28T00:40:57.584Z,22.49
2017-05-28T00:42:06.911Z,22.52
2017-05-28T00:43:16.544Z,22.57
2017-05-28T00:44:26.816Z,22.51
2017-05-28T00:45:36.780Z,22.51
2017-05-28T00:46:47.044Z,22.52
2017-05-28T00:47:57.030Z,22.52
2017-05-28T00:49:06.669Z,22.49
2017-05-28T00:50:16.938Z,22.55
2017-05-28T00:51:27.212Z,22.52
2017-05-28T00:52:37.476Z,22.51
2017-05-28T00:53:47.116Z,22.6
2017-05-28T00:54:57.388Z,22.52
2017-05-28T00:56:07.031Z,22.51
2017-05-28T00:57:16.978Z,22.54
2017-05-28T00:58:27.245Z,22.6
2017-05-28T00:59:36.572Z,22.52
2017-05-28T01:00:46.221Z,22.49
2017-05-28T01:01:56.177Z,22.52
2017-05-28T01:03:06.458Z,22.45
2017-05-28T01:04:16.410Z,22.49
2017-05-28T01:05:26.056Z,22.55
2017-05-28T01:06:36.012Z,22.52
2017-05-28T01:07:45.649Z,22.47
2017-05-28T01:08:55.910Z,22.52
2017-05-28T01:10:06.183Z,22.54
2017-05-28T01:11:16.133Z,22.6
2017-05-28T01:12:26.090Z,22.49
2017-05-28T01:13:35.738Z,22.52
2017-05-28T01:14:45.376Z,22.47
2017-05-28T01:15:55.643Z,22.49
2017-05-28T01:17:05.297Z,22.51
2017-05-28T01:18:15.565Z,22.49
2017-05-28T01:19:24.891Z,22.49
2017-05-28T01:20:34.845Z,22.46
2017-05-28T01:21:44.794Z,22.51
2017-05-28T01:22:54.747Z,22.47
2017-05-28T01:24:04.696Z,22.47
2017-05-28T01:25:14.992Z,22.47
2017-05-28T01:26:24.625Z,22.45
2017-05-28T01:27:33.955Z,22.52
2017-05-28T01:28:44.240Z,22.46
2017-05-28T01:29:54.195Z,22.46
2017-05-28T01:31:03.839Z,22.49
2017-05-28T01:32:13.795Z,22.49
2017-05-28T01:33:24.056Z,22.46
2017-05-28T01:34:33.698Z,22.54
2017-05-28T01:35:43.029Z,22.52
2017-05-28T01:36:52.345Z,22.46
2017-05-28T01:38:02.616Z,22.46
2017-05-28T01:39:12.257Z,22.4
2017-05-28T01:40:21.890Z,22.37
2017-05-28T01:41:31.536Z,22.51
2017-05-28T01:42:41.826Z,22.51
2017-05-28T01:43:51.785Z,22.39
2017-05-28T01:45:01.737Z,22.4
2017-05-28T01:46:11.688Z,22.43
2017-05-28T01:47:21.647Z,22.37
2017-05-28T01:48:31.597Z,22.43
2017-05-28T01:49:41.869Z,22.54
2017-05-28T01:50:51.817Z,22.39
2017-05-28T01:52:01.452Z,22.37
2017-05-28T01:53:11.729Z,22.36
2017-05-28T01:54:21.690Z,22.36
2017-05-28T01:55:31.012Z,22.31
2017-05-28T01:56:40.969Z,22.37
2017-05-28T01:57:51.241Z,22.39
2017-05-28T01:59:00.897Z,22.35
2017-05-28T02:00:11.168Z,22.39
2017-05-28T02:01:21.115Z,22.42
2017-05-28T02:02:31.386Z,22.37
2017-05-28T02:03:41.661Z,22.39
2017-05-28T02:04:51.949Z,22.39
2017-05-28T02:06:01.586Z,22.35
2017-05-28T02:07:11.545Z,22.33
2017-05-28T02:08:21.503Z,22.37
2017-05-28T02:09:31.137Z,22.31
2017-05-28T02:10:40.463Z,22.43
2017-05-28T02:11:50.407Z,22.46
2017-05-28T02:13:00.673Z,22.36
2017-05-28T02:14:10.629Z,22.37
2017-05-28T02:15:19.950Z,22.46
2017-05-28T02:16:30.208Z,22.35
2017-05-28T02:17:40.160Z,22.39
2017-05-28T02:18:50.432Z,22.42
2017-05-28T02:20:00.387Z,22.31
2017-05-28T02:21:09.712Z,22.42
2017-05-28T02:22:19.343Z,22.4
2017-05-28T02:23:29.301Z,22.42
2017-05-28T02:24:39.265Z,22.36
2017-05-28T02:25:49.536Z,22.37
2017-05-28T02:26:59.176Z,22.42
2017-05-28T02:28:09.128Z,22.45
2017-05-28T02:29:19.397Z,22.36
2017-05-28T02:30:29.401Z,22.37
2017-05-28T02:31:39.358Z,22.33
2017-05-28T02:32:49.628Z,22.4
2017-05-28T02:33:59.584Z,22.35
2017-05-28T02:35:09.535Z,22.42
2017-05-28T02:36:19.799Z,22.37
2017-05-28T02:37:29.764Z,22.33
2017-05-28T02:38:39.715Z,22.36
2017-05-28T02:39:49.667Z,22.37
2017-05-28T02:40:59.936Z,22.39
2017-05-28T02:42:09.889Z,22.36
2017-05-28T02:43:19.841Z,22.33
2017-05-28T02:44:29.497Z,22.37
2017-05-28T02:45:39.445Z,22.4
2017-05-28T02:46:49.719Z,22.51
2017-05-28T02:47:59.678Z,22.4
2017-05-28T02:49:09.943Z,22.51
2017-05-28T02:50:20.239Z,22.42
2017-05-28T02:51:29.881Z,22.37
2017-05-28T02:52:39.833Z,22.31
2017-05-28T02:53:49.792Z,22.36
2017-05-28T02:55:00.068Z,22.33
2017-05-28T02:56:10.020Z,22.35
2017-05-28T02:57:19.663Z,22.35
2017-05-28T02:58:29.925Z,22.33
2017-05-28T02:59:39.875Z,22.51
2017-05-28T03:00:49.896Z,22.39
2017-05-28T03:02:00.161Z,22.4
2017-05-28T03:03:10.115Z,22.49
2017-05-28T03:04:19.799Z,22.39
2017-05-28T03:05:30.064Z,22.37
2017-05-28T03:06:40.328Z,22.35
2017-05-28T03:07:50.278Z,22.39
2017-05-28T03:09:00.551Z,22.35
2017-05-28T03:10:10.191Z,22.37
2017-05-28T03:11:19.201Z,22.33
2017-05-28T03:12:29.151Z,22.4
2017-05-28T03:13:39.099Z,22.36
2017-05-28T03:14:49.378Z,22.35
2017-05-28T03:15:59.341Z,22.36
2017-05-28T03:17:09.294Z,22.3
2017-05-28T03:18:19.250Z,22.39
2017-05-28T03:19:29.199Z,22.39
2017-05-28T03:20:39.166Z,22.42
2017-05-28T03:22:20.880Z,22.33
2017-05-28T03:23:31.154Z,22.4
2017-05-28T03:24:41.424Z,22.39
2017-05-28T03:25:51.060Z,22.39
2017-05-28T03:27:01.010Z,22.4
2017-05-28T03:28:11.281Z,22.37
2017-05-28T03:29:21.238Z,22.4
2017-05-28T03:30:31.508Z,22.39
2017-05-28T03:31:41.461Z,22.39
2017-05-28T03:32:51.414Z,22.36
2017-05-28T03:34:01.048Z,22.36
2017-05-28T03:35:11.312Z,22.39
2017-05-28T03:36:21.579Z,22.43
2017-05-28T03:37:31.843Z,22.37
2017-05-28T03:38:41.799Z,22.37
2017-05-28T03:39:51.478Z,22.42
2017-05-28T03:41:01.115Z,22.45
2017-05-28T03:42:11.384Z,22.36
2017-05-28T03:43:21.342Z,22.4
2017-05-28T03:44:31.291Z,22.36
2017-05-28T03:45:41.564Z,22.43
2017-05-28T03:46:51.847Z,22.39
2017-05-28T03:48:01.801Z,22.37
2017-05-28T03:49:12.071Z,22.42
2017-05-28T03:50:22.026Z,22.36
2017-05-28T03:51:32.292Z,22.39
2017-05-28T03:52:42.563Z,22.4
2017-05-28T03:53:52.514Z,22.4
2017-05-28T03:55:02.470Z,22.36
2017-05-28T03:56:12.728Z,22.4
2017-05-28T03:57:21.738Z,22.39
2017-05-28T03:58:32.085Z,22.36
2017-05-28T03:59:41.718Z,22.31
2017-05-28T04:00:51.982Z,22.4
2017-05-28T04:02:02.252Z,22.33
2017-05-28T04:03:11.884Z,22.43
2017-05-28T04:04:21.527Z,22.35
2017-05-28T04:05:31.823Z,22.42
2017-05-28T04:06:41.786Z,22.37
2017-05-28T04:07:51.734Z,22.43
2017-05-28T04:09:01.684Z,22.39
2017-05-28T04:10:11.948Z,22.37
2017-05-28T04:11:22.221Z,22.43
2017-05-28T04:12:32.177Z,22.43
2017-05-28T04:13:41.820Z,22.37
2017-05-28T04:14:52.090Z,22.39
2017-05-28T04:16:02.363Z,22.39
2017-05-28T04:17:12.312Z,22.43
2017-05-28T04:18:21.951Z,22.36
2017-05-28T04:19:31.911Z,22.39
2017-05-28T04:20:42.173Z,22.36
2017-05-28T04:21:52.129Z,22.35
2017-05-28T04:23:01.765Z,22.36
2017-05-28T04:24:11.723Z,22.39
2017-05-28T04:25:21.363Z,22.37
2017-05-28T04:26:31.315Z,22.33
2017-05-28T04:27:41.596Z,22.36
2017-05-28T04:28:51.868Z,22.36
2017-05-28T04:30:02.145Z,22.31
2017-05-28T04:31:12.415Z,22.43
2017-05-28T04:32:22.049Z,22.42
2017-05-28T04:33:32.329Z,22.31
2017-05-28T04:34:41.981Z,22.39
2017-05-28T04:35:52.249Z,22.43
2017-05-28T04:37:01.891Z,22.36
2017-05-28T04:38:11.220Z,22.43
2017-05-28T04:39:20.858Z,22.31
2017-05-28T04:40:31.128Z,22.37
2017-05-28T04:41:40.763Z,22.36
2017-05-28T04:42:51.038Z,22.36
2017-05-28T04:44:00.696Z,22.4
2017-05-28T04:45:10.964Z,22.36
2017-05-28T04:46:21.235Z,22.35
2017-05-28T04:47:31.498Z,22.35
2017-05-28T04:48:41.444Z,22.39
2017-05-28T04:49:51.774Z,22.39
2017-05-28T04:51:01.410Z,22.42
2017-05-28T04:52:11.052Z,22.33
2017-05-28T04:53:21.314Z,22.35
2017-05-28T04:54:30.958Z,22.36
2017-05-28T04:55:40.915Z,22.33
2017-05-28T04:56:51.185Z,22.35
2017-05-28T04:58:00.828Z,22.39
2017-05-28T04:59:11.099Z,22.33
2017-05-28T05:00:21.363Z,22.36
2017-05-28T05:01:31.004Z,22.36
2017-05-28T05:02:40.637Z,22.39
2017-05-28T05:03:50.592Z,22.4
2017-05-28T05:04:59.913Z,22.42
2017-05-28T05:06:10.185Z,22.35
2017-05-28T05:07:19.825Z,22.45
2017-05-28T05:08:30.092Z,22.36
2017-05-28T05:09:40.048Z,22.39
2017-05-28T05:10:50.326Z,22.42
2017-05-28T05:12:00.277Z,22.37
2017-05-28T05:13:10.553Z,22.37
2017-05-28T05:14:20.846Z,22.37
2017-05-28T05:15:31.122Z,22.36
2017-05-28T05:16:40.758Z,22.4
2017-05-28T05:17:50.713Z,22.54
2017-05-28T05:19:00.985Z,22.47
2017-05-28T05:20:11.249Z,22.57
2017-05-28T05:21:21.518Z,22.43
2017-05-28T05:22:31.830Z,22.54
2017-05-28T05:23:42.101Z,22.55
2017-05-28T05:24:52.060Z,22.36
2017-05-28T05:26:02.067Z,22.36
2017-05-28T05:27:12.349Z,22.43
2017-05-28T05:28:22.008Z,22.54
2017-05-28T05:29:31.965Z,22.43
2017-05-28T05:30:41.607Z,22.51
2017-05-28T05:31:50.930Z,22.47
2017-05-28T05:33:00.258Z,22.49
2017-05-28T05:34:09.900Z,22.39
2017-05-28T05:35:19.542Z,22.43
2017-05-28T05:36:29.496Z,22.45
2017-05-28T05:37:39.763Z,22.47
2017-05-28T05:38:49.775Z,22.31
2017-05-28T05:40:00.044Z,22.43
2017-05-28T05:41:09.682Z,22.39
2017-05-28T05:42:19.946Z,22.47
2017-05-28T05:43:29.277Z,22.43
2017-05-28T05:44:39.544Z,22.47
2017-05-28T05:45:49.812Z,22.46
2017-05-28T05:46:59.767Z,22.51
2017-05-28T05:48:09.717Z,22.47
2017-05-28T05:49:19.040Z,22.54
2017-05-28T05:50:29.307Z,22.47
2017-05-28T05:51:39.258Z,22.49
2017-05-28T05:52:48.903Z,22.46
2017-05-28T05:53:58.861Z,22.47
2017-05-28T05:55:08.816Z,22.51
2017-05-28T05:56:18.517Z,22.49
2017-05-28T05:57:28.780Z,22.55
2017-05-28T05:58:38.415Z,22.47
2017-05-28T05:59:48.376Z,22.58
2017-05-28T06:00:58.333Z,22.51
2017-05-28T06:02:08.599Z,22.54
2017-05-28T06:03:18.551Z,22.55
2017-05-28T06:04:28.811Z,22.49
2017-05-28T06:05:38.762Z,22.54
2017-05-28T06:06:49.031Z,22.54
2017-05-28T06:07:58.672Z,22.52
2017-05-28T06:09:08.315Z,22.54
2017-05-28T06:10:18.269Z,22.62
2017-05-28T06:11:28.533Z,22.58
2017-05-28T06:12:38.801Z,22.57
2017-05-28T06:13:48.761Z,22.6
2017-05-28T06:14:59.027Z,22.57
2017-05-28T06:16:08.977Z,22.61
2017-05-28T06:17:18.927Z,22.57
2017-05-28T06:18:29.199Z,22.61
2017-05-28T06:19:38.840Z,22.58
2017-05-28T06:20:48.797Z,22.54
2017-05-28T06:21:59.060Z,22.61
2017-05-28T06:23:08.695Z,22.65
2017-05-28T06:24:18.658Z,22.68
2017-05-28T06:25:28.626Z,22.68
2017-05-28T06:26:38.582Z,22.64
2017-05-28T06:27:48.531Z,22.73
2017-05-28T06:28:58.492Z,22.75
2017-05-28T06:30:07.815Z,22.73
2017-05-28T06:31:17.141Z,22.72
2017-05-28T06:32:27.097Z,22.8
2017-05-28T06:33:37.115Z,22.77
2017-05-28T06:34:46.754Z,22.8
2017-05-28T06:35:56.708Z,22.76
2017-05-28T06:37:06.673Z,22.79
2017-05-28T06:38:16.632Z,22.7
2017-05-28T06:39:26.596Z,22.75
2017-05-28T06:40:36.864Z,22.72
2017-05-28T06:41:46.820Z,22.75
2017-05-28T06:42:56.142Z,22.76
2017-05-28T06:44:06.087Z,22.72
2017-05-28T06:45:15.730Z,22.7
2017-05-28T06:46:25.691Z,22.75
2017-05-28T06:47:35.956Z,22.79
2017-05-28T06:48:46.227Z,22.79
2017-05-28T06:49:56.171Z,22.79
2017-05-28T06:51:05.819Z,22.79
2017-05-28T06:52:15.469Z,22.77
2017-05-28T06:53:25.740Z,22.82
2017-05-28T06:54:36.003Z,22.82
2017-05-28T06:55:45.324Z,22.82
2017-05-28T06:56:55.277Z,22.73
2017-05-28T06:58:05.230Z,22.68
2017-05-28T06:59:14.872Z,22.79
2017-05-28T07:00:25.152Z,22.8
2017-05-28T07:01:35.108Z,22.9
2017-05-28T07:02:44.740Z,22.9
2017-05-28T07:03:55.009Z,22.83
2017-05-28T07:05:04.656Z,22.83
2017-05-28T07:06:14.922Z,22.9
2017-05-28T07:07:24.565Z,22.83
2017-05-28T07:08:34.859Z,22.83
2017-05-28T07:09:44.495Z,22.86
2017-05-28T07:10:54.761Z,22.85
2017-05-28T07:12:05.032Z,22.85
2017-05-28T07:13:15.294Z,22.86
2017-05-28T07:14:24.936Z,22.9
2017-05-28T07:15:34.895Z,22.95
2017-05-28T07:16:45.160Z,23.01
2017-05-28T07:17:55.438Z,22.97
2017-05-28T07:19:05.396Z,23.04
2017-05-28T07:20:15.346Z,23
2017-05-28T07:21:24.989Z,22.88
2017-05-28T07:22:34.938Z,22.97
2017-05-28T07:23:45.214Z,23.01
2017-05-28T07:24:55.483Z,22.97
2017-05-28T07:26:05.440Z,22.97
2017-05-28T07:27:15.392Z,22.97
2017-05-28T07:28:25.030Z,22.92
2017-05-28T07:29:34.987Z,22.95
2017-05-28T07:30:44.940Z,22.91
2017-05-28T07:31:54.899Z,22.97
2017-05-28T07:33:04.856Z,22.97
2017-05-28T07:34:15.128Z,22.97
2017-05-28T07:35:25.401Z,22.94
2017-05-28T07:36:35.350Z,22.97
2017-05-28T07:37:45.622Z,23
2017-05-28T07:38:55.261Z,22.95
2017-05-28T07:40:05.527Z,22.94
2017-05-28T07:41:14.909Z,22.97
2017-05-28T07:42:25.176Z,22.97
2017-05-28T07:43:35.121Z,22.92
2017-05-28T07:44:45.387Z,22.92
2017-05-28T07:45:55.668Z,22.97
2017-05-28T07:47:05.615Z,22.94
2017-05-28T07:48:15.573Z,22.95
2017-05-28T07:49:25.541Z,23
2017-05-28T07:50:35.809Z,22.94
2017-05-28T07:51:45.477Z,23
2017-05-28T07:52:55.434Z,23.02
2017-05-28T07:54:05.387Z,22.98
2017-05-28T07:55:14.708Z,22.95
2017-05-28T07:56:24.667Z,22.97
2017-05-28T07:57:34.639Z,23.16
2017-05-28T07:58:44.626Z,23.13
2017-05-28T07:59:54.908Z,23.13
2017-05-28T08:01:04.860Z,23.09
2017-05-28T08:02:14.505Z,23.04
2017-05-28T08:03:24.771Z,23.12
2017-05-28T08:04:34.732Z,23.15
2017-05-28T08:05:45.002Z,23.05
2017-05-28T08:06:55.271Z,23.05
2017-05-28T08:08:05.219Z,23.15
2017-05-28T08:09:14.556Z,23.04
2017-05-28T08:10:24.512Z,23.02
2017-05-28T08:11:34.489Z,23.1
2017-05-28T08:12:44.763Z,23
2017-05-28T08:13:54.717Z,23.1
2017-05-28T08:15:04.671Z,22.98
2017-05-28T08:16:14.305Z,22.98
2017-05-28T08:17:24.577Z,23.1
2017-05-28T08:18:34.535Z,23.15
2017-05-28T08:19:44.168Z,23.16
2017-05-28T08:20:53.813Z,23.31
2017-05-28T08:22:03.456Z,23.23
2017-05-28T08:23:13.099Z,23.22
2017-05-28T08:24:23.053Z,23.32
2017-05-28T08:25:33.324Z,23.19
2017-05-28T08:26:43.281Z,23.38
2017-05-28T08:27:53.553Z,23.47
2017-05-28T08:29:03.509Z,23.5
2017-05-28T08:30:12.516Z,23.73
2017-05-28T08:31:22.788Z,23.69
2017-05-28T08:32:32.433Z,23.65
2017-05-28T08:33:42.706Z,23.61
2017-05-28T08:34:52.654Z,23.55
2017-05-28T08:36:02.609Z,23.5
2017-05-28T08:37:12.249Z,23.57
2017-05-28T08:38:21.888Z,23.53
2017-05-28T08:39:31.849Z,23.57
2017-05-28T08:40:42.114Z,23.43
2017-05-28T08:41:52.385Z,23.5
2017-05-28T08:43:02.029Z,23.51
2017-05-28T08:44:11.359Z,23.51
2017-05-28T08:45:21.315Z,23.42
2017-05-28T08:46:31.265Z,23.35
2017-05-28T08:47:41.543Z,23.47
2017-05-28T08:48:51.821Z,23.4
2017-05-28T08:50:02.101Z,23.33
2017-05-28T08:51:12.053Z,23.38
2017-05-28T08:52:21.691Z,23.42
2017-05-28T08:53:31.959Z,23.33
2017-05-28T08:54:42.234Z,23.38
2017-05-28T08:55:52.205Z,23.38
2017-05-28T08:57:02.468Z,23.31
2017-05-28T08:58:12.430Z,23.33
2017-05-28T08:59:22.385Z,23.4
2017-05-28T09:00:32.650Z,23.36
2017-05-28T09:01:42.603Z,23.33
2017-05-28T09:02:52.560Z,23.38
2017-05-28T09:04:02.198Z,23.36
2017-05-28T09:05:12.143Z,23.35
2017-05-28T09:06:22.097Z,23.32
2017-05-28T09:07:32.362Z,23.19
2017-05-28T09:08:42.627Z,23.32
2017-05-28T09:09:52.902Z,23.25
2017-05-28T09:11:02.541Z,23.31
2017-05-28T09:12:12.177Z,23.32
2017-05-28T09:13:22.439Z,23.23
2017-05-28T09:14:32.397Z,23.28
2017-05-28T09:15:42.666Z,23.23
2017-05-28T09:16:51.995Z,23.17
2017-05-28T09:18:01.943Z,23.13
2017-05-28T09:19:11.270Z,23.13
2017-05-28T09:20:20.591Z,23.15
2017-05-28T09:21:30.864Z,23.15
2017-05-28T09:22:40.813Z,23.17
2017-05-28T09:23:50.521Z,23.22
2017-05-28T09:25:00.789Z,23.13
2017-05-28T09:26:11.058Z,23.16
2017-05-28T09:27:20.697Z,23.15
2017-05-28T09:28:30.338Z,23.19
2017-05-28T09:29:39.664Z,23.2
2017-05-28T09:30:49.614Z,23.15
2017-05-28T09:31:59.879Z,23.22
2017-05-28T09:33:09.839Z,23.2
2017-05-28T09:34:20.114Z,23.22
2017-05-28T09:35:30.414Z,23.16
2017-05-28T09:36:40.678Z,23.16
2017-05-28T09:37:50.636Z,23.2
2017-05-28T09:39:00.585Z,23.13
2017-05-28T09:40:10.546Z,23.19
2017-05-28T09:41:20.190Z,23.17
2017-05-28T09:42:29.834Z,23.15
2017-05-28T09:43:39.475Z,23.15
2017-05-28T09:44:49.740Z,23.17
2017-05-28T09:45:59.378Z,23.19
2017-05-28T09:47:09.019Z,23.16
2017-05-28T09:48:19.285Z,23.15
2017-05-28T09:49:29.239Z,23.13
2017-05-28T09:50:38.877Z,23.23
2017-05-28T09:51:48.835Z,23.1
2017-05-28T09:52:58.480Z,23.09
2017-05-28T09:54:08.749Z,23.1
2017-05-28T09:55:18.708Z,23.13
2017-05-28T09:56:28.684Z,23.17
2017-05-28T09:57:38.977Z,23.1
2017-05-28T09:58:48.927Z,23.19
2017-05-28T09:59:58.878Z,23.15
2017-05-28T10:01:08.515Z,23.12
2017-05-28T10:02:18.467Z,23.13
2017-05-28T10:03:28.744Z,23.19
2017-05-28T10:04:38.702Z,23.1
2017-05-28T10:05:48.967Z,23.12
2017-05-28T10:06:59.241Z,23.13
2017-05-28T10:08:09.214Z,23.16
2017-05-28T10:09:19.178Z,23.12
2017-05-28T10:10:29.137Z,23.13
2017-05-28T10:11:39.406Z,23.16
2017-05-28T10:12:49.368Z,23.16
2017-05-28T10:13:59.327Z,23.16
2017-05-28T10:15:09.278Z,23.13
2017-05-28T10:16:18.922Z,23.16
2017-05-28T10:17:29.191Z,23.15
2017-05-28T10:18:39.458Z,23.12
2017-05-28T10:19:49.732Z,23.09
2017-05-28T10:20:59.056Z,23.19
2017-05-28T10:22:08.700Z,23.19
2017-05-28T10:23:18.339Z,23.13
2017-05-28T10:24:27.978Z,23.04
2017-05-28T10:25:37.929Z,23.17
2017-05-28T10:26:47.568Z,23.13
2017-05-28T10:27:57.524Z,23.15
2017-05-28T10:29:07.808Z,23.15
2017-05-28T10:30:17.136Z,23.01
2017-05-28T10:31:27.090Z,23.19
2017-05-28T10:32:36.725Z,23.15
2017-05-28T10:33:46.676Z,23.1
2017-05-28T10:34:56.954Z,23.1
2017-05-28T10:36:07.242Z,23.09
2017-05-28T10:37:16.878Z,23.13
2017-05-28T10:38:27.172Z,23.1
2017-05-28T10:39:37.132Z,23.13
2017-05-28T10:40:47.082Z,23.12
2017-05-28T10:41:57.349Z,23.13
2017-05-28T10:43:06.993Z,23.13
2017-05-28T10:44:17.274Z,23.07
2017-05-28T10:45:27.234Z,23.05
2017-05-28T10:46:36.875Z,23.16
2017-05-28T10:47:46.836Z,23.15
2017-05-28T10:48:56.784Z,23.13
2017-05-28T10:50:06.432Z,23.09
2017-05-28T10:51:16.396Z,23.07
2017-05-28T10:52:26.036Z,23.07
2017-05-28T10:53:36.042Z,23.1
2017-05-28T10:54:46.312Z,23.07
2017-05-28T10:55:56.637Z,23.02
2017-05-28T10:57:06.604Z,23.02
2017-05-28T10:58:16.249Z,23.07
2017-05-28T10:59:26.205Z,23.02
2017-05-28T11:00:36.480Z,23.12
2017-05-28T11:01:46.118Z,23.09
2017-05-28T11:02:56.127Z,23.04
2017-05-28T11:04:05.768Z,23.05
2017-05-28T11:05:15.406Z,23.05
2017-05-28T11:06:25.683Z,23.04
2017-05-28T11:07:35.950Z,23.04
2017-05-28T11:08:45.593Z,23.01
2017-05-28T11:09:55.549Z,23.04
2017-05-28T11:11:05.506Z,23
2017-05-28T11:12:15.773Z,23.07
2017-05-28T11:13:25.720Z,23.04
2017-05-28T11:14:35.679Z,23.02
2017-05-28T11:15:45.626Z,23.07
2017-05-28T11:16:55.573Z,23.16
2017-05-28T11:18:05.211Z,23.12
2017-05-28T11:19:15.487Z,23.09
2017-05-28T11:20:25.128Z,23.05
2017-05-28T11:21:34.767Z,23.07
2017-05-28T11:22:44.089Z,23.09
2017-05-28T11:23:54.045Z,22.98
2017-05-28T11:25:04.315Z,23.1
2017-05-28T11:26:14.267Z,23.12
2017-05-28T11:27:23.909Z,23
2017-05-28T11:28:34.186Z,23.15
2017-05-28T11:29:44.460Z,23.01
2017-05-28T11:30:54.096Z,23.04
2017-05-28T11:32:03.739Z,23.07
2017-05-28T11:33:13.692Z,23.05
2017-05-28T11:34:23.642Z,23
2017-05-28T11:35:33.592Z,23.07
2017-05-28T11:36:43.857Z,23.01
2017-05-28T11:37:54.123Z,23.07
2017-05-28T11:39:04.080Z,23
2017-05-28T11:40:14.355Z,23.01
2017-05-28T11:41:24.310Z,23.04
2017-05-28T11:42:34.263Z,23.04
2017-05-28T11:43:44.535Z,23.04
2017-05-28T11:44:54.488Z,23.05
2017-05-28T11:46:04.763Z,23
2017-05-28T11:47:13.458Z,23
2017-05-28T11:48:23.722Z,23.09
2017-05-28T11:49:33.992Z,22.98
2017-05-28T11:50:44.257Z,23
2017-05-28T11:51:53.899Z,23.01
2017-05-28T11:53:03.861Z,23.01
2017-05-28T11:54:13.516Z,23.02
2017-05-28T11:55:23.151Z,23.02
2017-05-28T11:56:33.134Z,23.01
2017-05-28T11:57:43.403Z,23.16
2017-05-28T11:58:53.356Z,23.05
2017-05-28T12:00:02.999Z,23.02
2017-05-28T12:01:12.964Z,23.05
2017-05-28T12:02:22.602Z,23.01
2017-05-28T12:03:32.566Z,23.02
2017-05-28T12:04:42.520Z,23.04
2017-05-28T12:05:52.472Z,22.98
2017-05-28T12:07:02.120Z,23.07
2017-05-28T12:08:11.763Z,23.07
2017-05-28T12:09:21.726Z,23.02
2017-05-28T12:10:31.679Z,23.04
2017-05-28T12:11:41.941Z,23
2017-05-28T12:12:52.202Z,23.05
2017-05-28T12:14:01.526Z,23.05
2017-05-28T12:15:11.481Z,23.02
2017-05-28T12:16:21.122Z,23.13
2017-05-28T12:17:30.761Z,23.22
2017-05-28T12:18:40.724Z,23.2
2017-05-28T12:19:50.994Z,23.15
2017-05-28T12:21:00.314Z,23.12
2017-05-28T12:22:10.275Z,23.25
2017-05-28T12:23:20.228Z,23.2
2017-05-28T12:24:30.181Z,23.12
2017-05-28T12:25:40.142Z,23.13
2017-05-28T12:26:50.402Z,23.13
2017-05-28T12:28:00.043Z,23.19
2017-05-28T12:29:09.999Z,23.12
2017-05-28T12:30:19.958Z,23.19
2017-05-28T12:31:29.913Z,23.16
2017-05-28T12:32:39.869Z,23.15
2017-05-28T12:33:49.862Z,23.16
2017-05-28T12:34:59.819Z,23.13
2017-05-28T12:36:09.145Z,23.13
2017-05-28T12:37:19.422Z,23.12
2017-05-28T12:38:28.744Z,23.22
2017-05-28T12:39:39.025Z,23.19
2017-05-28T12:40:48.976Z,23.17
2017-05-28T12:41:59.248Z,23.1
2017-05-28T12:43:09.521Z,23.12
2017-05-28T12:44:19.480Z,23.1
2017-05-28T12:45:29.440Z,23.09
2017-05-28T12:46:39.083Z,23.12
2017-05-28T12:47:49.350Z,23.2
2017-05-28T12:48:59.626Z,23.23
2017-05-28T12:50:09.893Z,23.19
2017-05-28T12:51:20.157Z,23.15
2017-05-28T12:52:30.428Z,23.2
2017-05-28T12:53:40.701Z,23.15
2017-05-28T12:54:50.338Z,23.13
2017-05-28T12:55:59.999Z,23.12
2017-05-28T12:57:09.950Z,23.17
2017-05-28T12:58:19.593Z,23.2
2017-05-28T12:59:29.559Z,23.09
2017-05-28T13:00:39.206Z,23.15
2017-05-28T13:01:49.480Z,23.22
2017-05-28T13:02:59.753Z,23.13
2017-05-28T13:04:09.715Z,23.2
2017-05-28T13:05:19.046Z,23.09
2017-05-28T13:06:28.997Z,23.13
2017-05-28T13:07:39.271Z,23.19
2017-05-28T13:08:49.541Z,23.13
2017-05-28T13:09:59.185Z,23.1
2017-05-28T13:11:09.455Z,23.19
2017-05-28T13:12:19.721Z,23.2
2017-05-28T13:13:29.682Z,23.16
2017-05-28T13:14:39.949Z,23.23
2017-05-28T13:15:49.900Z,23.15
2017-05-28T13:17:00.176Z,23.27
2017-05-28T13:18:09.820Z,23.23
2017-05-28T13:19:20.096Z,23.38
2017-05-28T13:20:30.361Z,23.4
2017-05-28T13:21:40.636Z,23.35
2017-05-28T13:22:50.590Z,23.2
2017-05-28T13:24:00.544Z,23.31
2017-05-28T13:25:10.497Z,23.22
2017-05-28T13:26:20.456Z,23.22
2017-05-28T13:27:30.408Z,23.2
2017-05-28T13:28:40.364Z,23.28
2017-05-28T13:29:50.326Z,23.2
2017-05-28T13:31:00.280Z,23.32
2017-05-28T13:32:10.557Z,23.27
2017-05-28T13:33:20.511Z,23.2
2017-05-28T13:34:30.467Z,23.33
2017-05-28T13:35:39.790Z,23.27
2017-05-28T13:36:50.058Z,23.33
2017-05-28T13:38:00.012Z,23.2
2017-05-28T13:39:09.653Z,23.22
2017-05-28T13:40:19.605Z,23.33
2017-05-28T13:41:29.241Z,23.17
2017-05-28T13:42:39.513Z,23.32
2017-05-28T13:43:49.783Z,23.25
2017-05-28T13:44:59.422Z,23.31
2017-05-28T13:46:09.384Z,23.33
2017-05-28T13:47:19.336Z,23.33
2017-05-28T13:48:28.679Z,23.28
2017-05-28T13:49:38.945Z,23.28
2017-05-28T13:50:48.586Z,23.4
2017-05-28T13:51:58.535Z,23.35
2017-05-28T13:53:08.181Z,23.31
2017-05-28T13:54:18.142Z,23.38
2017-05-28T13:55:28.095Z,23.31
2017-05-28T13:56:38.373Z,23.27
2017-05-28T13:57:48.029Z,23.31
2017-05-28T13:58:57.994Z,23.31
2017-05-28T14:00:08.279Z,23.31
2017-05-28T14:01:18.232Z,23.27
2017-05-28T14:02:27.872Z,23.33
2017-05-28T14:03:38.143Z,23.33
2017-05-28T14:04:47.793Z,23.31
2017-05-28T14:05:57.747Z,23.32
2017-05-28T14:07:07.701Z,23.33
2017-05-28T14:08:17.653Z,23.38
2017-05-28T14:09:27.617Z,23.4
2017-05-28T14:10:37.884Z,23.48
2017-05-28T14:11:47.840Z,23.33
2017-05-28T14:12:57.481Z,23.35
2017-05-28T14:14:07.433Z,23.47
2017-05-28T14:15:17.488Z,23.39
2017-05-28T14:16:27.762Z,23.42
2017-05-28T14:17:38.038Z,23.35
2017-05-28T14:18:48.307Z,23.33
2017-05-28T14:19:58.266Z,23.2
2017-05-28T14:21:08.228Z,23.2
2017-05-28T14:22:18.182Z,23.28
2017-05-28T14:23:28.141Z,23.22
2017-05-28T14:24:37.805Z,23.25
2017-05-28T14:25:47.450Z,23.32
2017-05-28T14:26:57.405Z,23.25
2017-05-28T14:28:07.047Z,23.22
2017-05-28T14:29:16.675Z,23.22
2017-05-28T14:30:26.942Z,23.23
2017-05-28T14:31:36.582Z,23.2
2017-05-28T14:32:46.864Z,23.28
2017-05-28T14:33:56.510Z,23.2
2017-05-28T14:35:06.776Z,23.22
2017-05-28T14:36:17.045Z,23.23
2017-05-28T14:37:26.684Z,23.23
2017-05-28T14:38:36.325Z,23.23
2017-05-28T14:39:46.289Z,23.23
2017-05-28T14:40:56.554Z,23.31
2017-05-28T14:42:05.876Z,23.31
2017-05-28T14:43:16.152Z,23.28
2017-05-28T14:44:26.103Z,23.23
2017-05-28T14:45:36.377Z,23.28
2017-05-28T14:46:45.700Z,23.31
2017-05-28T14:47:55.039Z,23.22
2017-05-28T14:49:04.993Z,23.28
2017-05-28T14:50:15.261Z,23.23
2017-05-28T14:51:25.278Z,23.28
2017-05-28T14:52:34.911Z,23.31
2017-05-28T14:53:45.186Z,23.23
2017-05-28T14:54:55.460Z,23.27
2017-05-28T14:56:05.726Z,23.2
2017-05-28T14:57:15.998Z,23.31
2017-05-28T14:58:25.979Z,23.2
2017-05-28T14:59:36.243Z,23.22
2017-05-28T15:00:46.201Z,23.16
2017-05-28T15:01:56.161Z,23.23
2017-05-28T15:03:06.429Z,23.27
2017-05-28T15:04:16.379Z,23.27
2017-05-28T15:05:26.660Z,23.25